sensor_id;sensor_type;location;lat;lon;timestamp;P1;durP1;ratioP1;P2;durP2;ratioP2
4992;SDS011;2514;53.524;10.166;2022-07-22T00:00:03;0.80;;;0.40;;
4992;SDS011;2514;53.524;10.166;2022-07-22T00:02:32;0.90;;;0.50;;
4992;SDS011;2514;53.524;10.166;2022-07-22T00:04:59;1.30;;;1.20;;
4992;SDS011;2514;53.524;10.166;2022-07-22T00:07:26;1.10;;;0.80;;
4992;SDS011;2514;53.524;10.166;2022-07-22T00:09:53;0.90;;;0.40;;
4992;SDS011;2514;53.524;10.166;2022-07-22T00:12:19;1.40;;;1.27;;
4992;SDS011;2514;53.524;10.166;2022-07-22T00:14:47;1.83;;;1.67;;
4992;SDS011;2514;53.524;10.166;2022-07-22T00:17:15;2.40;;;0.85;;
4992;SDS011;2514;53.524;10.166;2022-07-22T00:19:42;0.90;;;0.70;;
4992;SDS011;2514;53.524;10.166;2022-07-22T00:22:09;3.92;;;1.75;;
4992;SDS011;2514;53.524;10.166;2022-07-22T00:24:43;0.80;;;0.40;;
4992;SDS011;2514;53.524;10.166;2022-07-22T00:27:10;2.00;;;1.80;;
4992;SDS011;2514;53.524;10.166;2022-07-22T00:29:37;1.80;;;0.80;;
4992;SDS011;2514;53.524;10.166;2022-07-22T00:32:04;0.80;;;0.40;;
4992;SDS011;2514;53.524;10.166;2022-07-22T00:34:33;0.80;;;0.40;;
4992;SDS011;2514;53.524;10.166;2022-07-22T00:37:00;1.80;;;1.00;;
4992;SDS011;2514;53.524;10.166;2022-07-22T00:39:27;3.00;;;2.10;;
4992;SDS011;2514;53.524;10.166;2022-07-22T00:41:53;0.90;;;0.50;;
4992;SDS011;2514;53.524;10.166;2022-07-22T00:44:20;1.90;;;1.50;;
4992;SDS011;2514;53.524;10.166;2022-07-22T00:46:47;1.00;;;0.80;;
4992;SDS011;2514;53.524;10.166;2022-07-22T00:49:14;2.40;;;1.70;;
4992;SDS011;2514;53.524;10.166;2022-07-22T00:51:42;0.98;;;0.68;;
4992;SDS011;2514;53.524;10.166;2022-07-22T00:54:11;4.80;;;2.53;;
4992;SDS011;2514;53.524;10.166;2022-07-22T00:56:39;25.55;;;9.82;;
4992;SDS011;2514;53.524;10.166;2022-07-22T00:59:07;15.60;;;7.90;;
4992;SDS011;2514;53.524;10.166;2022-07-22T01:01:36;9.30;;;4.50;;
4992;SDS011;2514;53.524;10.166;2022-07-22T01:04:03;10.45;;;6.45;;
4992;SDS011;2514;53.524;10.166;2022-07-22T01:06:30;25.38;;;10.20;;
4992;SDS011;2514;53.524;10.166;2022-07-22T01:08:58;14.32;;;7.07;;
4992;SDS011;2514;53.524;10.166;2022-07-22T01:11:25;8.07;;;5.75;;
4992;SDS011;2514;53.524;10.166;2022-07-22T01:13:53;8.60;;;3.70;;
4992;SDS011;2514;53.524;10.166;2022-07-22T01:16:21;9.33;;;5.27;;
4992;SDS011;2514;53.524;10.166;2022-07-22T01:18:48;3.38;;;2.58;;
4992;SDS011;2514;53.524;10.166;2022-07-22T01:21:16;1.85;;;1.75;;
4992;SDS011;2514;53.524;10.166;2022-07-22T01:23:44;5.90;;;3.33;;
4992;SDS011;2514;53.524;10.166;2022-07-22T01:26:11;4.35;;;3.13;;
4992;SDS011;2514;53.524;10.166;2022-07-22T01:28:38;1.88;;;1.20;;
4992;SDS011;2514;53.524;10.166;2022-07-22T01:31:05;2.72;;;2.40;;
4992;SDS011;2514;53.524;10.166;2022-07-22T01:33:33;2.40;;;2.10;;
4992;SDS011;2514;53.524;10.166;2022-07-22T01:36:00;2.10;;;1.90;;
4992;SDS011;2514;53.524;10.166;2022-07-22T01:38:29;1.00;;;0.60;;
4992;SDS011;2514;53.524;10.166;2022-07-22T01:40:56;1.20;;;1.10;;
4992;SDS011;2514;53.524;10.166;2022-07-22T01:43:23;1.55;;;1.40;;
4992;SDS011;2514;53.524;10.166;2022-07-22T01:45:51;3.20;;;1.73;;
4992;SDS011;2514;53.524;10.166;2022-07-22T01:48:19;1.05;;;0.70;;
4992;SDS011;2514;53.524;10.166;2022-07-22T01:50:47;0.80;;;0.50;;
4992;SDS011;2514;53.524;10.166;2022-07-22T01:53:14;2.22;;;1.08;;
4992;SDS011;2514;53.524;10.166;2022-07-22T01:55:43;1.20;;;1.00;;
4992;SDS011;2514;53.524;10.166;2022-07-22T01:58:10;2.50;;;1.70;;
4992;SDS011;2514;53.524;10.166;2022-07-22T02:00:37;5.75;;;1.15;;
4992;SDS011;2514;53.524;10.166;2022-07-22T02:03:04;3.17;;;1.50;;
4992;SDS011;2514;53.524;10.166;2022-07-22T02:05:32;2.58;;;1.48;;
4992;SDS011;2514;53.524;10.166;2022-07-22T02:08:00;7.00;;;1.73;;
4992;SDS011;2514;53.524;10.166;2022-07-22T02:10:28;28.60;;;2.50;;
4992;SDS011;2514;53.524;10.166;2022-07-22T02:12:56;8.27;;;3.50;;
4992;SDS011;2514;53.524;10.166;2022-07-22T02:15:27;11.32;;;2.10;;
4992;SDS011;2514;53.524;10.166;2022-07-22T02:17:54;4.82;;;2.65;;
4992;SDS011;2514;53.524;10.166;2022-07-22T02:20:22;2.85;;;2.65;;
4992;SDS011;2514;53.524;10.166;2022-07-22T02:22:49;8.77;;;4.90;;
4992;SDS011;2514;53.524;10.166;2022-07-22T02:25:16;4.50;;;3.40;;
4992;SDS011;2514;53.524;10.166;2022-07-22T02:27:43;1.98;;;1.52;;
4992;SDS011;2514;53.524;10.166;2022-07-22T02:30:11;1.67;;;1.30;;
4992;SDS011;2514;53.524;10.166;2022-07-22T02:32:38;1.20;;;0.60;;
4992;SDS011;2514;53.524;10.166;2022-07-22T02:35:05;8.00;;;2.20;;
4992;SDS011;2514;53.524;10.166;2022-07-22T02:37:33;2.90;;;1.40;;
4992;SDS011;2514;53.524;10.166;2022-07-22T02:40:01;3.42;;;2.50;;
4992;SDS011;2514;53.524;10.166;2022-07-22T02:42:29;2.50;;;2.30;;
4992;SDS011;2514;53.524;10.166;2022-07-22T02:44:56;1.60;;;1.38;;
4992;SDS011;2514;53.524;10.166;2022-07-22T02:47:25;1.75;;;1.63;;
4992;SDS011;2514;53.524;10.166;2022-07-22T02:49:52;2.90;;;1.70;;
4992;SDS011;2514;53.524;10.166;2022-07-22T02:52:19;6.38;;;2.13;;
4992;SDS011;2514;53.524;10.166;2022-07-22T02:54:45;3.15;;;1.63;;
4992;SDS011;2514;53.524;10.166;2022-07-22T02:57:12;6.88;;;2.17;;
4992;SDS011;2514;53.524;10.166;2022-07-22T02:59:39;13.45;;;1.98;;
4992;SDS011;2514;53.524;10.166;2022-07-22T03:02:06;4.20;;;1.20;;
4992;SDS011;2514;53.524;10.166;2022-07-22T03:04:35;1.27;;;0.90;;
4992;SDS011;2514;53.524;10.166;2022-07-22T03:07:01;2.70;;;1.20;;
4992;SDS011;2514;53.524;10.166;2022-07-22T03:09:28;16.60;;;1.80;;
4992;SDS011;2514;53.524;10.166;2022-07-22T03:11:55;3.13;;;1.45;;
4992;SDS011;2514;53.524;10.166;2022-07-22T03:14:22;1.10;;;0.82;;
4992;SDS011;2514;53.524;10.166;2022-07-22T03:16:49;2.77;;;1.50;;
4992;SDS011;2514;53.524;10.166;2022-07-22T03:19:16;0.95;;;0.73;;
4992;SDS011;2514;53.524;10.166;2022-07-22T03:21:44;1.30;;;0.60;;
4992;SDS011;2514;53.524;10.166;2022-07-22T03:24:11;1.10;;;1.00;;
4992;SDS011;2514;53.524;10.166;2022-07-22T03:26:38;1.40;;;1.00;;
4992;SDS011;2514;53.524;10.166;2022-07-22T03:29:05;1.10;;;0.70;;
4992;SDS011;2514;53.524;10.166;2022-07-22T03:31:32;5.50;;;1.92;;
4992;SDS011;2514;53.524;10.166;2022-07-22T03:33:59;1.30;;;0.70;;
4992;SDS011;2514;53.524;10.166;2022-07-22T03:36:26;1.90;;;1.00;;
4992;SDS011;2514;53.524;10.166;2022-07-22T03:38:55;0.82;;;0.55;;
4992;SDS011;2514;53.524;10.166;2022-07-22T03:41:22;1.27;;;1.10;;
4992;SDS011;2514;53.524;10.166;2022-07-22T03:43:49;7.25;;;1.83;;
4992;SDS011;2514;53.524;10.166;2022-07-22T03:46:16;0.80;;;0.40;;
4992;SDS011;2514;53.524;10.166;2022-07-22T03:48:43;4.60;;;0.70;;
4992;SDS011;2514;53.524;10.166;2022-07-22T03:51:10;2.20;;;1.00;;
4992;SDS011;2514;53.524;10.166;2022-07-22T03:53:37;0.80;;;0.40;;
4992;SDS011;2514;53.524;10.166;2022-07-22T03:56:06;1.70;;;1.27;;
4992;SDS011;2514;53.524;10.166;2022-07-22T03:58:33;2.80;;;1.70;;
4992;SDS011;2514;53.524;10.166;2022-07-22T04:01:00;1.00;;;0.80;;
4992;SDS011;2514;53.524;10.166;2022-07-22T04:03:28;0.85;;;0.68;;
4992;SDS011;2514;53.524;10.166;2022-07-22T04:05:55;0.95;;;0.50;;
4992;SDS011;2514;53.524;10.166;2022-07-22T04:08:22;1.20;;;0.70;;
4992;SDS011;2514;53.524;10.166;2022-07-22T04:10:48;3.80;;;0.90;;
4992;SDS011;2514;53.524;10.166;2022-07-22T04:13:17;1.90;;;1.00;;
4992;SDS011;2514;53.524;10.166;2022-07-22T04:15:43;1.50;;;0.70;;
4992;SDS011;2514;53.524;10.166;2022-07-22T04:18:10;1.00;;;0.80;;
4992;SDS011;2514;53.524;10.166;2022-07-22T04:20:37;4.40;;;0.77;;
4992;SDS011;2514;53.524;10.166;2022-07-22T04:23:04;2.10;;;0.80;;
4992;SDS011;2514;53.524;10.166;2022-07-22T04:25:31;1.20;;;1.10;;
4992;SDS011;2514;53.524;10.166;2022-07-22T04:27:58;0.80;;;0.40;;
4992;SDS011;2514;53.524;10.166;2022-07-22T04:30:26;1.90;;;0.90;;
4992;SDS011;2514;53.524;10.166;2022-07-22T04:32:53;0.80;;;0.40;;
4992;SDS011;2514;53.524;10.166;2022-07-22T04:35:20;0.80;;;0.40;;
4992;SDS011;2514;53.524;10.166;2022-07-22T04:37:47;0.80;;;0.60;;
4992;SDS011;2514;53.524;10.166;2022-07-22T04:40:14;1.40;;;0.90;;
4992;SDS011;2514;53.524;10.166;2022-07-22T04:42:40;0.80;;;0.40;;
4992;SDS011;2514;53.524;10.166;2022-07-22T04:45:08;10.98;;;1.25;;
4992;SDS011;2514;53.524;10.166;2022-07-22T04:47:36;1.40;;;0.70;;
4992;SDS011;2514;53.524;10.166;2022-07-22T04:50:04;0.80;;;0.50;;
4992;SDS011;2514;53.524;10.166;2022-07-22T04:52:31;0.85;;;0.60;;
4992;SDS011;2514;53.524;10.166;2022-07-22T04:54:58;4.30;;;0.80;;
4992;SDS011;2514;53.524;10.166;2022-07-22T04:57:25;2.40;;;1.00;;
4992;SDS011;2514;53.524;10.166;2022-07-22T04:59:52;1.00;;;0.60;;
4992;SDS011;2514;53.524;10.166;2022-07-22T05:02:19;1.20;;;0.70;;
4992;SDS011;2514;53.524;10.166;2022-07-22T05:04:47;0.80;;;0.40;;
4992;SDS011;2514;53.524;10.166;2022-07-22T05:07:14;0.80;;;0.40;;
4992;SDS011;2514;53.524;10.166;2022-07-22T05:09:41;0.90;;;0.60;;
4992;SDS011;2514;53.524;10.166;2022-07-22T05:12:07;0.80;;;0.40;;
4992;SDS011;2514;53.524;10.166;2022-07-22T05:14:34;1.70;;;0.90;;
4992;SDS011;2514;53.524;10.166;2022-07-22T05:17:01;0.80;;;0.60;;
4992;SDS011;2514;53.524;10.166;2022-07-22T05:19:28;0.80;;;0.60;;
4992;SDS011;2514;53.524;10.166;2022-07-22T05:21:56;0.88;;;0.65;;
4992;SDS011;2514;53.524;10.166;2022-07-22T05:24:23;0.80;;;0.40;;
4992;SDS011;2514;53.524;10.166;2022-07-22T05:26:50;0.98;;;0.65;;
4992;SDS011;2514;53.524;10.166;2022-07-22T05:29:17;6.20;;;1.10;;
4992;SDS011;2514;53.524;10.166;2022-07-22T05:31:44;0.90;;;0.60;;
4992;SDS011;2514;53.524;10.166;2022-07-22T05:34:11;1.10;;;0.65;;
4992;SDS011;2514;53.524;10.166;2022-07-22T05:36:37;0.90;;;0.60;;
4992;SDS011;2514;53.524;10.166;2022-07-22T05:39:06;0.85;;;0.70;;
4992;SDS011;2514;53.524;10.166;2022-07-22T05:41:33;0.97;;;0.77;;
4992;SDS011;2514;53.524;10.166;2022-07-22T05:44:00;1.70;;;1.20;;
4992;SDS011;2514;53.524;10.166;2022-07-22T05:46:27;1.00;;;0.63;;
4992;SDS011;2514;53.524;10.166;2022-07-22T05:48:54;1.20;;;0.80;;
4992;SDS011;2514;53.524;10.166;2022-07-22T05:51:21;1.13;;;1.03;;
4992;SDS011;2514;53.524;10.166;2022-07-22T05:53:49;1.20;;;0.80;;
4992;SDS011;2514;53.524;10.166;2022-07-22T05:56:17;0.80;;;0.50;;
4992;SDS011;2514;53.524;10.166;2022-07-22T05:58:44;3.50;;;1.20;;
4992;SDS011;2514;53.524;10.166;2022-07-22T06:01:11;0.97;;;0.87;;
4992;SDS011;2514;53.524;10.166;2022-07-22T06:03:38;4.40;;;1.50;;
4992;SDS011;2514;53.524;10.166;2022-07-22T06:06:05;1.08;;;0.98;;
4992;SDS011;2514;53.524;10.166;2022-07-22T06:08:33;0.80;;;0.40;;
4992;SDS011;2514;53.524;10.166;2022-07-22T06:11:01;0.90;;;0.60;;
4992;SDS011;2514;53.524;10.166;2022-07-22T06:13:29;5.60;;;1.10;;
4992;SDS011;2514;53.524;10.166;2022-07-22T06:15:56;3.30;;;1.20;;
4992;SDS011;2514;53.524;10.166;2022-07-22T06:18:23;0.80;;;0.50;;
4992;SDS011;2514;53.524;10.166;2022-07-22T06:20:50;1.17;;;0.90;;
4992;SDS011;2514;53.524;10.166;2022-07-22T06:23:16;2.70;;;1.50;;
4992;SDS011;2514;53.524;10.166;2022-07-22T06:25:43;0.80;;;0.50;;
4992;SDS011;2514;53.524;10.166;2022-07-22T06:28:10;1.40;;;0.80;;
4992;SDS011;2514;53.524;10.166;2022-07-22T06:30:39;5.70;;;1.40;;
4992;SDS011;2514;53.524;10.166;2022-07-22T06:33:06;8.50;;;1.60;;
4992;SDS011;2514;53.524;10.166;2022-07-22T06:35:33;3.40;;;1.13;;
4992;SDS011;2514;53.524;10.166;2022-07-22T06:38:00;2.33;;;0.90;;
4992;SDS011;2514;53.524;10.166;2022-07-22T06:40:27;1.00;;;0.80;;
4992;SDS011;2514;53.524;10.166;2022-07-22T06:42:54;0.90;;;0.60;;
4992;SDS011;2514;53.524;10.166;2022-07-22T06:45:21;0.80;;;0.50;;
4992;SDS011;2514;53.524;10.166;2022-07-22T06:47:49;1.50;;;0.80;;
4992;SDS011;2514;53.524;10.166;2022-07-22T06:50:15;3.40;;;0.60;;
4992;SDS011;2514;53.524;10.166;2022-07-22T06:52:42;1.60;;;1.50;;
4992;SDS011;2514;53.524;10.166;2022-07-22T06:55:09;0.80;;;0.50;;
4992;SDS011;2514;53.524;10.166;2022-07-22T06:57:37;1.30;;;1.20;;
4992;SDS011;2514;53.524;10.166;2022-07-22T07:00:05;1.83;;;1.63;;
4992;SDS011;2514;53.524;10.166;2022-07-22T07:02:33;2.72;;;1.05;;
4992;SDS011;2514;53.524;10.166;2022-07-22T07:05:02;3.20;;;2.38;;
4992;SDS011;2514;53.524;10.166;2022-07-22T07:07:29;1.50;;;0.60;;
4992;SDS011;2514;53.524;10.166;2022-07-22T07:09:56;1.10;;;0.73;;
4992;SDS011;2514;53.524;10.166;2022-07-22T07:12:23;1.45;;;1.02;;
4992;SDS011;2514;53.524;10.166;2022-07-22T07:14:50;4.47;;;1.77;;
4992;SDS011;2514;53.524;10.166;2022-07-22T07:17:17;1.13;;;1.02;;
4992;SDS011;2514;53.524;10.166;2022-07-22T07:19:44;1.00;;;0.70;;
4992;SDS011;2514;53.524;10.166;2022-07-22T07:22:12;3.73;;;1.57;;
4992;SDS011;2514;53.524;10.166;2022-07-22T07:24:39;2.25;;;1.10;;
4992;SDS011;2514;53.524;10.166;2022-07-22T07:27:06;2.20;;;1.33;;
4992;SDS011;2514;53.524;10.166;2022-07-22T07:29:33;5.35;;;2.25;;
4992;SDS011;2514;53.524;10.166;2022-07-22T07:32:00;6.50;;;1.70;;
4992;SDS011;2514;53.524;10.166;2022-07-22T07:34:27;0.80;;;0.43;;
4992;SDS011;2514;53.524;10.166;2022-07-22T07:36:53;1.65;;;0.88;;
4992;SDS011;2514;53.524;10.166;2022-07-22T07:39:22;2.20;;;0.98;;
4992;SDS011;2514;53.524;10.166;2022-07-22T07:41:49;1.15;;;0.75;;
4992;SDS011;2514;53.524;10.166;2022-07-22T07:44:16;7.00;;;1.60;;
4992;SDS011;2514;53.524;10.166;2022-07-22T07:46:43;1.90;;;0.90;;
4992;SDS011;2514;53.524;10.166;2022-07-22T07:49:10;9.90;;;1.30;;
4992;SDS011;2514;53.524;10.166;2022-07-22T07:51:37;1.95;;;1.05;;
4992;SDS011;2514;53.524;10.166;2022-07-22T07:54:04;2.90;;;1.38;;
4992;SDS011;2514;53.524;10.166;2022-07-22T07:56:32;2.47;;;1.10;;
4992;SDS011;2514;53.524;10.166;2022-07-22T07:58:59;1.00;;;0.90;;
4992;SDS011;2514;53.524;10.166;2022-07-22T08:01:26;1.00;;;0.80;;
4992;SDS011;2514;53.524;10.166;2022-07-22T08:03:53;2.60;;;1.10;;
4992;SDS011;2514;53.524;10.166;2022-07-22T08:06:20;1.80;;;1.35;;
4992;SDS011;2514;53.524;10.166;2022-07-22T08:08:47;3.40;;;0.75;;
4992;SDS011;2514;53.524;10.166;2022-07-22T08:11:14;0.90;;;0.60;;
4992;SDS011;2514;53.524;10.166;2022-07-22T08:13:42;7.40;;;1.50;;
4992;SDS011;2514;53.524;10.166;2022-07-22T08:16:09;2.47;;;1.30;;
4992;SDS011;2514;53.524;10.166;2022-07-22T08:18:36;3.28;;;1.10;;
4992;SDS011;2514;53.524;10.166;2022-07-22T08:21:03;6.00;;;1.27;;
4992;SDS011;2514;53.524;10.166;2022-07-22T08:23:29;2.30;;;1.00;;
4992;SDS011;2514;53.524;10.166;2022-07-22T08:25:57;2.50;;;1.00;;
4992;SDS011;2514;53.524;10.166;2022-07-22T08:28:24;1.70;;;0.90;;
4992;SDS011;2514;53.524;10.166;2022-07-22T08:30:52;3.30;;;2.13;;
4992;SDS011;2514;53.524;10.166;2022-07-22T08:33:19;0.80;;;0.40;;
4992;SDS011;2514;53.524;10.166;2022-07-22T08:35:46;1.20;;;1.10;;
4992;SDS011;2514;53.524;10.166;2022-07-22T08:38:13;1.70;;;0.70;;
4992;SDS011;2514;53.524;10.166;2022-07-22T08:40:40;3.10;;;1.00;;
4992;SDS011;2514;53.524;10.166;2022-07-22T08:43:07;1.60;;;1.50;;
4992;SDS011;2514;53.524;10.166;2022-07-22T08:45:34;2.20;;;1.90;;
4992;SDS011;2514;53.524;10.166;2022-07-22T08:48:02;1.50;;;0.98;;
4992;SDS011;2514;53.524;10.166;2022-07-22T08:50:30;1.67;;;1.38;;
4992;SDS011;2514;53.524;10.166;2022-07-22T08:52:58;1.40;;;0.80;;
4992;SDS011;2514;53.524;10.166;2022-07-22T08:55:24;2.90;;;1.88;;
4992;SDS011;2514;53.524;10.166;2022-07-22T08:57:51;30.40;;;1.80;;
4992;SDS011;2514;53.524;10.166;2022-07-22T09:00:19;3.78;;;1.13;;
4992;SDS011;2514;53.524;10.166;2022-07-22T09:02:48;4.30;;;1.60;;
4992;SDS011;2514;53.524;10.166;2022-07-22T09:05:16;0.90;;;0.50;;
4992;SDS011;2514;53.524;10.166;2022-07-22T09:07:44;1.20;;;1.10;;
4992;SDS011;2514;53.524;10.166;2022-07-22T09:10:13;6.95;;;2.25;;
4992;SDS011;2514;53.524;10.166;2022-07-22T09:12:51;2.42;;;0.95;;
4992;SDS011;2514;53.524;10.166;2022-07-22T09:15:27;1.40;;;1.02;;
4992;SDS011;2514;53.524;10.166;2022-07-22T09:17:55;0.80;;;0.40;;
4992;SDS011;2514;53.524;10.166;2022-07-22T09:20:25;2.22;;;0.80;;
4992;SDS011;2514;53.524;10.166;2022-07-22T09:22:53;0.90;;;0.50;;
4992;SDS011;2514;53.524;10.166;2022-07-22T09:25:20;1.90;;;1.00;;
4992;SDS011;2514;53.524;10.166;2022-07-22T09:27:51;3.70;;;1.10;;
4992;SDS011;2514;53.524;10.166;2022-07-22T09:30:20;4.05;;;0.80;;
4992;SDS011;2514;53.524;10.166;2022-07-22T09:32:47;1.90;;;1.70;;
4992;SDS011;2514;53.524;10.166;2022-07-22T09:35:15;3.20;;;0.50;;
4992;SDS011;2514;53.524;10.166;2022-07-22T09:37:49;1.00;;;0.88;;
4992;SDS011;2514;53.524;10.166;2022-07-22T09:40:18;1.00;;;0.60;;
4992;SDS011;2514;53.524;10.166;2022-07-22T09:42:47;1.10;;;0.60;;
4992;SDS011;2514;53.524;10.166;2022-07-22T09:45:15;0.90;;;0.50;;
4992;SDS011;2514;53.524;10.166;2022-07-22T09:47:42;1.00;;;0.60;;
4992;SDS011;2514;53.524;10.166;2022-07-22T09:50:17;1.33;;;0.90;;
4992;SDS011;2514;53.524;10.166;2022-07-22T09:52:50;1.50;;;1.00;;
4992;SDS011;2514;53.524;10.166;2022-07-22T09:55:18;10.80;;;1.35;;
4992;SDS011;2514;53.524;10.166;2022-07-22T09:57:45;0.90;;;0.40;;
4992;SDS011;2514;53.524;10.166;2022-07-22T10:00:14;0.90;;;0.50;;
4992;SDS011;2514;53.524;10.166;2022-07-22T10:02:45;3.03;;;0.65;;
4992;SDS011;2514;53.524;10.166;2022-07-22T10:05:21;1.15;;;0.57;;
4992;SDS011;2514;53.524;10.166;2022-07-22T10:07:51;4.85;;;1.40;;
4992;SDS011;2514;53.524;10.166;2022-07-22T10:10:19;1.85;;;1.42;;
4992;SDS011;2514;53.524;10.166;2022-07-22T10:12:48;1.50;;;1.00;;
4992;SDS011;2514;53.524;10.166;2022-07-22T10:15:16;1.50;;;0.98;;
4992;SDS011;2514;53.524;10.166;2022-07-22T10:17:44;4.70;;;1.20;;
4992;SDS011;2514;53.524;10.166;2022-07-22T10:20:13;1.05;;;0.80;;
4992;SDS011;2514;53.524;10.166;2022-07-22T10:22:47;7.50;;;1.30;;
4992;SDS011;2514;53.524;10.166;2022-07-22T10:25:18;15.07;;;0.88;;
4992;SDS011;2514;53.524;10.166;2022-07-22T10:27:46;1.30;;;0.80;;
4992;SDS011;2514;53.524;10.166;2022-07-22T10:30:15;1.00;;;0.80;;
4992;SDS011;2514;53.524;10.166;2022-07-22T10:32:43;1.13;;;0.65;;
4992;SDS011;2514;53.524;10.166;2022-07-22T10:35:19;2.10;;;0.90;;
4992;SDS011;2514;53.524;10.166;2022-07-22T10:37:49;1.00;;;0.60;;
4992;SDS011;2514;53.524;10.166;2022-07-22T10:40:20;1.30;;;1.00;;
4992;SDS011;2514;53.524;10.166;2022-07-22T10:45:40;0.90;;;0.50;;
4992;SDS011;2514;53.524;10.166;2022-07-22T10:50:40;1.00;;;0.60;;
4992;SDS011;2514;53.524;10.166;2022-07-22T10:53:10;2.13;;;1.15;;
4992;SDS011;2514;53.524;10.166;2022-07-22T10:55:57;0.90;;;0.50;;
4992;SDS011;2514;53.524;10.166;2022-07-22T10:58:40;1.00;;;0.70;;
4992;SDS011;2514;53.524;10.166;2022-07-22T11:01:09;1.00;;;0.60;;
4992;SDS011;2514;53.524;10.166;2022-07-22T11:03:38;1.80;;;1.60;;
4992;SDS011;2514;53.524;10.166;2022-07-22T11:08:55;4.10;;;0.60;;
4992;SDS011;2514;53.524;10.166;2022-07-22T11:11:35;1.20;;;0.80;;
4992;SDS011;2514;53.524;10.166;2022-07-22T11:14:11;3.38;;;0.82;;
4992;SDS011;2514;53.524;10.166;2022-07-22T11:16:42;1.10;;;0.80;;
4992;SDS011;2514;53.524;10.166;2022-07-22T11:19:10;1.48;;;0.70;;
4992;SDS011;2514;53.524;10.166;2022-07-22T11:21:37;27.00;;;1.20;;
4992;SDS011;2514;53.524;10.166;2022-07-22T11:24:05;1.00;;;0.50;;
4992;SDS011;2514;53.524;10.166;2022-07-22T11:26:37;1.00;;;0.50;;
4992;SDS011;2514;53.524;10.166;2022-07-22T11:29:06;1.52;;;0.75;;
4992;SDS011;2514;53.524;10.166;2022-07-22T11:31:34;1.00;;;0.50;;
4992;SDS011;2514;53.524;10.166;2022-07-22T11:34:05;2.80;;;1.48;;
4992;SDS011;2514;53.524;10.166;2022-07-22T11:36:34;1.80;;;0.60;;
4992;SDS011;2514;53.524;10.166;2022-07-22T11:39:06;3.20;;;1.23;;
4992;SDS011;2514;53.524;10.166;2022-07-22T11:41:34;6.43;;;0.97;;
4992;SDS011;2514;53.524;10.166;2022-07-22T11:44:03;1.50;;;0.70;;
4992;SDS011;2514;53.524;10.166;2022-07-22T11:46:34;0.90;;;0.50;;
4992;SDS011;2514;53.524;10.166;2022-07-22T11:49:03;3.97;;;0.67;;
4992;SDS011;2514;53.524;10.166;2022-07-22T11:51:31;1.10;;;0.60;;
4992;SDS011;2514;53.524;10.166;2022-07-22T11:53:59;2.80;;;1.70;;
4992;SDS011;2514;53.524;10.166;2022-07-22T11:56:27;2.10;;;1.40;;
4992;SDS011;2514;53.524;10.166;2022-07-22T11:58:54;1.40;;;1.00;;
4992;SDS011;2514;53.524;10.166;2022-07-22T12:01:24;1.23;;;1.03;;
4992;SDS011;2514;53.524;10.166;2022-07-22T12:03:54;2.90;;;0.80;;
4992;SDS011;2514;53.524;10.166;2022-07-22T12:06:22;1.10;;;0.80;;
4992;SDS011;2514;53.524;10.166;2022-07-22T12:08:51;1.27;;;0.70;;
4992;SDS011;2514;53.524;10.166;2022-07-22T12:11:22;2.35;;;0.90;;
4992;SDS011;2514;53.524;10.166;2022-07-22T12:13:51;3.75;;;1.20;;
4992;SDS011;2514;53.524;10.166;2022-07-22T12:16:24;1.10;;;0.60;;
4992;SDS011;2514;53.524;10.166;2022-07-22T12:18:54;5.00;;;0.60;;
4992;SDS011;2514;53.524;10.166;2022-07-22T12:21:23;1.60;;;0.90;;
4992;SDS011;2514;53.524;10.166;2022-07-22T12:23:54;1.30;;;0.70;;
4992;SDS011;2514;53.524;10.166;2022-07-22T12:26:36;1.70;;;0.80;;
4992;SDS011;2514;53.524;10.166;2022-07-22T12:29:17;4.90;;;1.00;;
4992;SDS011;2514;53.524;10.166;2022-07-22T12:31:48;0.90;;;0.40;;
4992;SDS011;2514;53.524;10.166;2022-07-22T12:34:16;2.70;;;0.90;;
4992;SDS011;2514;53.524;10.166;2022-07-22T12:36:54;1.10;;;0.70;;
4992;SDS011;2514;53.524;10.166;2022-07-22T12:39:21;1.30;;;1.00;;
4992;SDS011;2514;53.524;10.166;2022-07-22T12:41:48;1.90;;;1.30;;
4992;SDS011;2514;53.524;10.166;2022-07-22T12:44:17;2.70;;;0.93;;
4992;SDS011;2514;53.524;10.166;2022-07-22T12:46:45;1.60;;;0.90;;
4992;SDS011;2514;53.524;10.166;2022-07-22T12:49:15;4.50;;;0.80;;
4992;SDS011;2514;53.524;10.166;2022-07-22T12:54:32;4.50;;;0.80;;
4992;SDS011;2514;53.524;10.166;2022-07-22T12:56:59;2.50;;;1.40;;
4992;SDS011;2514;53.524;10.166;2022-07-22T12:59:26;1.10;;;0.68;;
4992;SDS011;2514;53.524;10.166;2022-07-22T13:01:54;1.60;;;1.20;;
4992;SDS011;2514;53.524;10.166;2022-07-22T13:04:21;3.40;;;1.38;;
4992;SDS011;2514;53.524;10.166;2022-07-22T13:06:48;1.00;;;0.90;;
4992;SDS011;2514;53.524;10.166;2022-07-22T13:09:16;1.03;;;0.60;;
4992;SDS011;2514;53.524;10.166;2022-07-22T13:11:43;1.50;;;0.80;;
4992;SDS011;2514;53.524;10.166;2022-07-22T13:14:11;3.58;;;1.10;;
4992;SDS011;2514;53.524;10.166;2022-07-22T13:16:38;2.50;;;1.30;;
4992;SDS011;2514;53.524;10.166;2022-07-22T13:19:07;2.63;;;1.35;;
4992;SDS011;2514;53.524;10.166;2022-07-22T13:21:34;1.30;;;0.50;;
4992;SDS011;2514;53.524;10.166;2022-07-22T13:24:01;1.65;;;1.55;;
4992;SDS011;2514;53.524;10.166;2022-07-22T13:26:28;0.90;;;0.50;;
4992;SDS011;2514;53.524;10.166;2022-07-22T13:28:55;0.90;;;0.50;;
4992;SDS011;2514;53.524;10.166;2022-07-22T13:31:22;1.90;;;0.50;;
4992;SDS011;2514;53.524;10.166;2022-07-22T13:33:49;1.00;;;0.60;;
4992;SDS011;2514;53.524;10.166;2022-07-22T13:36:17;1.88;;;0.68;;
4992;SDS011;2514;53.524;10.166;2022-07-22T13:38:44;1.30;;;1.10;;
4992;SDS011;2514;53.524;10.166;2022-07-22T13:41:12;1.00;;;0.70;;
4992;SDS011;2514;53.524;10.166;2022-07-22T13:43:43;1.10;;;0.90;;
4992;SDS011;2514;53.524;10.166;2022-07-22T13:46:10;2.55;;;1.50;;
4992;SDS011;2514;53.524;10.166;2022-07-22T13:48:38;1.00;;;0.50;;
4992;SDS011;2514;53.524;10.166;2022-07-22T13:51:05;3.53;;;1.67;;
4992;SDS011;2514;53.524;10.166;2022-07-22T13:53:34;1.00;;;0.70;;
4992;SDS011;2514;53.524;10.166;2022-07-22T13:56:01;3.10;;;0.90;;
4992;SDS011;2514;53.524;10.166;2022-07-22T13:58:29;2.50;;;0.80;;
4992;SDS011;2514;53.524;10.166;2022-07-22T14:00:56;1.60;;;1.00;;
4992;SDS011;2514;53.524;10.166;2022-07-22T14:03:23;2.30;;;0.60;;
4992;SDS011;2514;53.524;10.166;2022-07-22T14:05:50;1.80;;;1.00;;
4992;SDS011;2514;53.524;10.166;2022-07-22T14:08:17;0.90;;;0.50;;
4992;SDS011;2514;53.524;10.166;2022-07-22T14:10:45;1.70;;;1.08;;
4992;SDS011;2514;53.524;10.166;2022-07-22T14:13:12;1.10;;;0.60;;
4992;SDS011;2514;53.524;10.166;2022-07-22T14:15:39;3.65;;;1.40;;
4992;SDS011;2514;53.524;10.166;2022-07-22T14:18:06;1.00;;;0.60;;
4992;SDS011;2514;53.524;10.166;2022-07-22T14:20:33;1.60;;;0.50;;
4992;SDS011;2514;53.524;10.166;2022-07-22T14:23:00;4.32;;;0.70;;
4992;SDS011;2514;53.524;10.166;2022-07-22T14:25:29;1.02;;;0.65;;
4992;SDS011;2514;53.524;10.166;2022-07-22T14:27:57;0.90;;;0.50;;
4992;SDS011;2514;53.524;10.166;2022-07-22T14:30:24;1.10;;;0.70;;
4992;SDS011;2514;53.524;10.166;2022-07-22T14:32:53;1.27;;;0.80;;
4992;SDS011;2514;53.524;10.166;2022-07-22T14:35:20;0.90;;;0.50;;
4992;SDS011;2514;53.524;10.166;2022-07-22T14:37:47;1.20;;;0.90;;
4992;SDS011;2514;53.524;10.166;2022-07-22T14:40:14;1.33;;;0.70;;
4992;SDS011;2514;53.524;10.166;2022-07-22T14:42:41;1.00;;;0.60;;
4992;SDS011;2514;53.524;10.166;2022-07-22T14:45:09;1.00;;;0.50;;
4992;SDS011;2514;53.524;10.166;2022-07-22T14:47:36;0.90;;;0.50;;
4992;SDS011;2514;53.524;10.166;2022-07-22T14:50:05;1.60;;;0.80;;
4992;SDS011;2514;53.524;10.166;2022-07-22T14:52:32;0.90;;;0.50;;
4992;SDS011;2514;53.524;10.166;2022-07-22T14:55:00;1.50;;;1.20;;
4992;SDS011;2514;53.524;10.166;2022-07-22T14:57:27;1.50;;;0.80;;
4992;SDS011;2514;53.524;10.166;2022-07-22T14:59:54;1.30;;;0.80;;
4992;SDS011;2514;53.524;10.166;2022-07-22T15:02:22;1.17;;;0.52;;
4992;SDS011;2514;53.524;10.166;2022-07-22T15:04:54;1.10;;;0.80;;
4992;SDS011;2514;53.524;10.166;2022-07-22T15:07:20;0.90;;;0.50;;
4992;SDS011;2514;53.524;10.166;2022-07-22T15:09:47;3.55;;;1.20;;
4992;SDS011;2514;53.524;10.166;2022-07-22T15:12:14;1.70;;;0.60;;
4992;SDS011;2514;53.524;10.166;2022-07-22T15:14:41;1.10;;;0.60;;